createdAt,value
2023-02-19T00:00:56.690Z,10.70
2023-02-19T00:03:22.716Z,10.70
2023-02-19T00:05:47.211Z,10.60
2023-02-19T00:08:11.909Z,10.50
2023-02-19T00:10:36.306Z,10.40
2023-02-19T00:13:01.193Z,10.30
2023-02-19T00:15:25.748Z,10.30
2023-02-19T00:17:50.285Z,10.30
2023-02-19T00:20:16.217Z,10.30
2023-02-19T00:22:40.747Z,10.30
2023-02-19T00:25:05.529Z,10.20
2023-02-19T00:27:30.094Z,10.10
2023-02-19T00:29:54.543Z,10.10
2023-02-19T00:32:19.523Z,9.90
2023-02-19T00:34:43.879Z,9.80
2023-02-19T00:37:09.764Z,9.70
2023-02-19T00:39:34.375Z,9.70
2023-02-19T00:42:00.717Z,9.80
2023-02-19T00:44:25.101Z,9.70
2023-02-19T00:46:49.917Z,9.60
2023-02-19T00:49:20.134Z,9.70
2023-02-19T00:51:45.451Z,9.70
2023-02-19T00:54:12.416Z,9.70
2023-02-19T00:56:37.077Z,9.70
2023-02-19T00:59:01.799Z,9.70
2023-02-19T01:01:26.696Z,9.60
2023-02-19T01:03:51.443Z,9.60
2023-02-19T01:06:18.046Z,9.60
2023-02-19T01:08:42.574Z,9.60
2023-02-19T01:11:10.014Z,9.60
2023-02-19T01:13:35.587Z,9.60
2023-02-19T01:16:04.881Z,9.60
2023-02-19T01:18:29.458Z,9.50
2023-02-19T01:20:53.896Z,9.50
2023-02-19T01:23:18.452Z,9.40
2023-02-19T01:25:44.099Z,9.30
2023-02-19T01:28:10.402Z,9.30
2023-02-19T01:30:37.235Z,9.30
2023-02-19T01:33:01.816Z,9.30
2023-02-19T01:35:26.224Z,9.30
2023-02-19T01:37:51.260Z,9.20
2023-02-19T01:40:15.689Z,9.20
2023-02-19T01:42:45.095Z,9.10
2023-02-19T01:45:23.194Z,9.10
2023-02-19T01:47:48.829Z,9.10
2023-02-19T01:50:13.430Z,9.10
2023-02-19T01:52:38.745Z,9.00
2023-02-19T01:55:06.799Z,9.00
2023-02-19T01:57:37.346Z,9.00
2023-02-19T02:00:07.243Z,8.90
2023-02-19T02:02:43.967Z,8.90
2023-02-19T02:05:15.616Z,8.80
2023-02-19T02:07:58.624Z,8.80
2023-02-19T02:10:23.268Z,8.80
2023-02-19T02:12:47.820Z,8.80
2023-02-19T02:15:12.719Z,8.80
2023-02-19T02:17:50.521Z,8.90
2023-02-19T02:20:32.223Z,8.90
2023-02-19T02:23:04.787Z,9.00
2023-02-19T02:25:58.621Z,8.90
2023-02-19T02:28:37.532Z,8.90
2023-02-19T02:31:07.682Z,8.90
2023-02-19T02:33:33.999Z,8.90
2023-02-19T02:36:04.738Z,9.00
2023-02-19T02:38:35.327Z,9.00
2023-02-19T02:41:00.330Z,9.00
2023-02-19T02:43:25.626Z,9.00
2023-02-19T02:45:50.323Z,9.00
2023-02-19T02:48:36.903Z,9.10
2023-02-19T02:51:07.515Z,9.00
2023-02-19T02:54:00.533Z,9.00
2023-02-19T02:56:27.628Z,9.00
2023-02-19T02:58:53.645Z,9.00
2023-02-19T03:01:40.811Z,9.10
2023-02-19T03:04:10.461Z,9.00
2023-02-19T03:06:38.166Z,9.00
2023-02-19T03:09:10.575Z,9.00
2023-02-19T03:11:55.716Z,9.00
2023-02-19T03:14:41.923Z,8.90
2023-02-19T03:17:29.004Z,8.90
2023-02-19T03:19:57.410Z,8.80
2023-02-19T03:22:26.880Z,8.80
2023-02-19T03:25:13.008Z,8.90
2023-02-19T03:27:42.385Z,8.90
2023-02-19T03:30:13.127Z,9.00
2023-02-19T03:32:42.591Z,9.10
2023-02-19T03:35:12.879Z,9.20
2023-02-19T03:37:42.828Z,9.10
2023-02-19T03:40:07.566Z,9.20
2023-02-19T03:42:39.831Z,9.20
2023-02-19T03:45:27.259Z,9.20
2023-02-19T03:48:03.173Z,9.30
2023-02-19T03:50:36.359Z,9.20
2023-02-19T03:53:07.884Z,9.30
2023-02-19T03:55:40.872Z,9.30
2023-02-19T03:58:10.187Z,9.30
2023-02-19T04:00:40.419Z,9.30
2023-02-19T04:03:13.084Z,9.30
2023-02-19T04:05:43.356Z,9.30
2023-02-19T04:08:15.284Z,9.30
2023-02-19T04:10:47.555Z,9.30
2023-02-19T04:13:18.620Z,9.30
2023-02-19T04:15:45.595Z,9.30
2023-02-19T04:18:16.035Z,9.30
2023-02-19T04:20:45.646Z,9.40
2023-02-19T04:23:10.703Z,9.30
2023-02-19T04:25:37.118Z,9.20
2023-02-19T04:28:03.770Z,9.10
2023-02-19T04:30:28.843Z,9.20
2023-02-19T04:32:53.361Z,9.20
2023-02-19T04:35:18.123Z,9.10
2023-02-19T04:37:44.651Z,9.10
2023-02-19T04:40:10.621Z,9.10
2023-02-19T04:42:35.039Z,9.20
2023-02-19T04:44:59.509Z,9.20
2023-02-19T04:47:23.971Z,9.20
2023-02-19T04:49:48.552Z,9.10
2023-02-19T04:52:13.336Z,9.10
2023-02-19T04:54:39.599Z,9.20
2023-02-19T04:57:04.255Z,9.10
2023-02-19T04:59:28.769Z,9.00
2023-02-19T05:01:53.453Z,9.00
2023-02-19T05:04:20.541Z,9.00
2023-02-19T05:06:44.970Z,9.00
2023-02-19T05:09:09.608Z,9.00
2023-02-19T05:11:35.378Z,9.00
2023-02-19T05:13:59.858Z,9.00
2023-02-19T05:16:24.587Z,9.10
2023-02-19T05:18:49.166Z,9.40
2023-02-19T05:21:14.401Z,9.80
2023-02-19T05:23:39.254Z,10.30
2023-02-19T05:26:11.368Z,10.80
2023-02-19T05:28:37.511Z,11.50
2023-02-19T05:31:06.665Z,12.30
2023-02-19T05:33:31.545Z,13.10
2023-02-19T05:35:57.056Z,13.70
2023-02-19T05:38:21.953Z,14.10
2023-02-19T05:40:46.795Z,14.40
2023-02-19T05:43:11.720Z,14.80
2023-02-19T05:45:37.847Z,15.10
2023-02-19T05:48:02.602Z,15.20
2023-02-19T05:50:34.268Z,15.10
2023-02-19T05:53:09.503Z,14.80
2023-02-19T05:55:37.380Z,14.40
2023-02-19T05:58:02.073Z,14.10
2023-02-19T06:00:27.492Z,14.00
2023-02-19T06:02:53.323Z,13.70
2023-02-19T06:05:17.787Z,13.80
2023-02-19T06:07:43.009Z,13.70
2023-02-19T06:10:08.617Z,13.80
2023-02-19T06:12:32.937Z,13.60
2023-02-19T06:14:57.386Z,13.40
2023-02-19T06:17:21.926Z,13.40
2023-02-19T06:19:47.950Z,13.50
2023-02-19T06:22:13.144Z,13.70
2023-02-19T06:24:38.373Z,14.10
2023-02-19T06:27:02.797Z,14.40
2023-02-19T06:29:30.415Z,14.70
2023-02-19T06:31:55.242Z,14.50
2023-02-19T06:34:20.172Z,14.40
2023-02-19T06:36:46.094Z,14.30
2023-02-19T06:39:11.866Z,14.30
2023-02-19T06:41:38.706Z,13.80
2023-02-19T06:44:03.110Z,13.60
2023-02-19T06:46:27.524Z,13.70
2023-02-19T06:48:52.504Z,14.00
2023-02-19T06:51:19.668Z,14.10
2023-02-19T06:53:46.100Z,14.10
2023-02-19T06:56:26.162Z,13.90
2023-02-19T06:58:50.586Z,13.80
2023-02-19T07:01:15.147Z,13.60
2023-02-19T07:03:39.911Z,13.60
2023-02-19T07:06:04.555Z,13.70
2023-02-19T07:08:29.709Z,13.80
2023-02-19T07:10:59.867Z,14.00
2023-02-19T07:13:24.740Z,14.20
2023-02-19T07:15:51.772Z,14.20
2023-02-19T07:18:16.612Z,14.40
2023-02-19T07:20:41.840Z,14.70
2023-02-19T07:23:06.366Z,15.10
2023-02-19T07:25:30.924Z,14.90
2023-02-19T07:27:57.668Z,14.90
2023-02-19T07:30:22.457Z,14.80
2023-02-19T07:32:47.698Z,15.10
2023-02-19T07:35:12.361Z,15.60
2023-02-19T07:37:37.034Z,16.00
2023-02-19T07:40:01.535Z,16.00
2023-02-19T07:42:28.459Z,16.20
2023-02-19T07:44:54.331Z,16.40
2023-02-19T07:47:18.811Z,16.40
2023-02-19T07:49:43.308Z,16.40
2023-02-19T07:52:07.859Z,16.50
2023-02-19T07:54:32.301Z,16.50
2023-02-19T07:56:57.050Z,16.50
2023-02-19T07:59:21.743Z,16.60
2023-02-19T08:02:15.628Z,16.30
2023-02-19T08:04:40.572Z,16.60
2023-02-19T08:07:05.527Z,16.90
2023-02-19T08:09:30.067Z,17.10
2023-02-19T08:12:11.928Z,17.30
2023-02-19T08:14:36.469Z,17.20
2023-02-19T08:17:03.316Z,16.90
2023-02-19T08:19:27.946Z,16.40
2023-02-19T08:21:53.601Z,16.60
2023-02-19T08:24:19.065Z,16.60
2023-02-19T08:26:43.555Z,16.40
2023-02-19T08:29:08.193Z,16.40
2023-02-19T08:31:33.188Z,16.50
2023-02-19T08:33:59.591Z,16.40
2023-02-19T08:36:24.021Z,16.50
2023-02-19T08:38:48.444Z,16.40
2023-02-19T08:41:15.526Z,16.50
2023-02-19T08:43:42.482Z,16.40
2023-02-19T08:46:08.122Z,16.30
2023-02-19T08:48:32.721Z,16.10
2023-02-19T08:51:00.570Z,16.00
2023-02-19T08:53:25.246Z,16.20
2023-02-19T08:55:57.250Z,16.60
2023-02-19T08:58:22.620Z,16.80
2023-02-19T09:00:47.253Z,17.00
2023-02-19T09:03:11.757Z,17.10
2023-02-19T09:05:36.408Z,17.10
2023-02-19T09:08:02.219Z,16.90
2023-02-19T09:10:27.650Z,16.90
2023-02-19T09:12:52.355Z,16.90
2023-02-19T09:15:17.022Z,16.70
2023-02-19T09:17:41.457Z,16.80
2023-02-19T09:20:06.393Z,16.90
2023-02-19T09:22:30.779Z,16.90
2023-02-19T09:24:56.790Z,16.90
2023-02-19T09:27:22.058Z,17.00
2023-02-19T09:29:46.971Z,17.10
2023-02-19T09:32:11.525Z,17.10
2023-02-19T09:34:36.261Z,17.20
2023-02-19T09:37:01.285Z,17.40
2023-02-19T09:39:25.752Z,17.60
2023-02-19T09:41:55.291Z,17.40
2023-02-19T09:44:28.871Z,17.20
2023-02-19T09:46:54.892Z,17.10
2023-02-19T09:49:25.133Z,17.10
2023-02-19T09:51:55.279Z,17.40
2023-02-19T09:54:24.621Z,17.70
2023-02-19T09:56:49.515Z,18.00
2023-02-19T09:59:21.576Z,17.90
2023-02-19T10:01:49.227Z,18.20
2023-02-19T10:04:13.706Z,18.50
2023-02-19T10:06:38.253Z,18.60
2023-02-19T10:09:16.181Z,18.80
2023-02-19T10:11:41.074Z,19.00
2023-02-19T10:14:09.591Z,18.90
2023-02-19T10:16:36.109Z,19.00
2023-02-19T10:19:00.502Z,19.10
2023-02-19T10:21:27.332Z,19.00
2023-02-19T10:23:55.037Z,19.00
2023-02-19T10:26:21.316Z,19.20
2023-02-19T10:28:45.803Z,19.30
2023-02-19T10:31:22.549Z,19.50
2023-02-19T10:33:53.500Z,19.60
2023-02-19T10:36:28.704Z,19.40
2023-02-19T10:38:55.355Z,19.40
2023-02-19T10:41:22.388Z,19.50
2023-02-19T10:43:55.188Z,19.60
2023-02-19T10:46:25.069Z,19.60
2023-02-19T10:48:53.866Z,19.40
2023-02-19T10:51:21.710Z,19.30
2023-02-19T10:53:48.154Z,19.00
2023-02-19T10:56:16.740Z,18.90
2023-02-19T10:58:42.517Z,18.90
2023-02-19T11:01:19.928Z,18.70
2023-02-19T11:03:45.034Z,18.80
2023-02-19T11:06:13.185Z,18.70
2023-02-19T11:08:54.817Z,18.80
2023-02-19T11:11:37.425Z,18.90
2023-02-19T11:14:06.527Z,19.10
2023-02-19T11:16:49.553Z,19.30
2023-02-19T11:19:29.533Z,19.10
2023-02-19T11:21:56.212Z,18.70
2023-02-19T11:24:28.504Z,18.40
2023-02-19T11:26:53.137Z,18.30
2023-02-19T11:29:22.983Z,18.00
2023-02-19T11:31:47.569Z,18.00
2023-02-19T11:34:30.124Z,18.20
2023-02-19T11:37:10.329Z,18.10
2023-02-19T11:39:35.842Z,18.10
2023-02-19T11:42:16.592Z,18.20
2023-02-19T11:44:52.723Z,18.30
2023-02-19T11:47:43.442Z,18.40
2023-02-19T11:50:18.966Z,18.60
2023-02-19T11:52:54.524Z,18.70
2023-02-19T11:55:39.020Z,18.70
2023-02-19T11:58:27.452Z,18.60
2023-02-19T12:00:57.212Z,18.30
2023-02-19T12:03:36.323Z,18.20
2023-02-19T12:06:19.771Z,18.10
2023-02-19T12:09:19.017Z,18.00
2023-02-19T12:12:17.498Z,18.00
2023-02-19T12:15:20.255Z,18.10
2023-02-19T12:18:03.071Z,18.20
2023-02-19T12:20:36.240Z,18.30
2023-02-19T12:23:17.917Z,18.30
2023-02-19T12:25:57.539Z,18.40
2023-02-19T12:28:53.031Z,18.40
2023-02-19T12:31:40.808Z,18.40
2023-02-19T12:34:24.556Z,18.40
2023-02-19T12:37:00.164Z,18.50
2023-02-19T12:39:35.495Z,18.50
2023-02-19T12:42:09.964Z,18.40
2023-02-19T12:44:40.392Z,18.50
2023-02-19T12:47:08.246Z,18.50
2023-02-19T12:49:37.831Z,18.50
2023-02-19T12:52:08.084Z,18.50
2023-02-19T12:54:38.288Z,18.30
2023-02-19T12:57:10.993Z,18.10
2023-02-19T12:59:41.151Z,18.10
2023-02-19T13:02:15.260Z,17.90
2023-02-19T13:04:47.885Z,17.80
2023-02-19T13:07:18.098Z,17.80
2023-02-19T13:09:49.878Z,17.80
2023-02-19T13:12:21.457Z,17.80
2023-02-19T13:14:49.971Z,17.80
2023-02-19T13:17:26.016Z,17.90
2023-02-19T13:19:54.920Z,18.20
2023-02-19T13:22:43.692Z,18.40
2023-02-19T13:25:11.606Z,18.40
2023-02-19T13:28:07.686Z,18.30
2023-02-19T13:30:59.205Z,18.30
2023-02-19T13:33:38.156Z,18.40
2023-02-19T13:36:10.318Z,18.30
2023-02-19T13:38:39.476Z,18.30
2023-02-19T13:41:04.578Z,18.20
2023-02-19T13:43:35.508Z,18.30
2023-02-19T13:46:05.532Z,18.20
2023-02-19T13:48:32.380Z,18.00
2023-02-19T13:51:41.648Z,17.60
2023-02-19T13:54:21.776Z,17.50
2023-02-19T13:56:47.776Z,17.40
2023-02-19T13:59:37.720Z,17.30
2023-02-19T14:02:11.083Z,17.20
2023-02-19T14:04:57.086Z,17.10
2023-02-19T14:07:53.783Z,17.10
2023-02-19T14:11:02.377Z,17.10
2023-02-19T14:14:11.303Z,17.00
2023-02-19T14:16:59.189Z,17.00
2023-02-19T14:19:52.479Z,17.00
2023-02-19T14:23:02.901Z,17.00
2023-02-19T14:25:48.902Z,16.90
2023-02-19T14:28:24.349Z,16.80
2023-02-19T14:30:53.213Z,16.70
2023-02-19T14:33:20.572Z,16.70
2023-02-19T14:35:47.366Z,16.60
2023-02-19T14:38:19.844Z,16.60
2023-02-19T14:40:49.110Z,16.60
2023-02-19T14:43:16.457Z,16.60
2023-02-19T14:45:44.658Z,16.60
2023-02-19T14:48:15.505Z,16.60
2023-02-19T14:50:40.409Z,16.50
2023-02-19T14:53:06.606Z,16.40
2023-02-19T14:55:34.015Z,16.40
2023-02-19T14:58:03.573Z,16.40
2023-02-19T15:00:32.110Z,16.40
2023-02-19T15:03:00.070Z,16.40
2023-02-19T15:05:27.897Z,16.40
2023-02-19T15:07:54.837Z,16.40
2023-02-19T15:10:20.078Z,16.40
2023-02-19T15:12:48.791Z,16.30
2023-02-19T15:15:20.337Z,16.30
2023-02-19T15:17:45.135Z,16.30
2023-02-19T15:20:17.036Z,16.30
2023-02-19T15:22:43.464Z,16.30
2023-02-19T15:25:09.783Z,16.20
2023-02-19T15:27:35.320Z,16.20
2023-02-19T15:30:00.561Z,16.20
2023-02-19T15:32:29.516Z,16.30
2023-02-19T15:34:58.231Z,16.30
2023-02-19T15:37:25.069Z,16.30
2023-02-19T15:39:51.107Z,16.30
2023-02-19T15:42:20.388Z,16.20
2023-02-19T15:44:48.546Z,16.00
2023-02-19T15:47:24.425Z,16.00
2023-02-19T15:49:58.223Z,16.00
2023-02-19T15:52:40.790Z,16.10
2023-02-19T15:55:22.193Z,16.10
2023-02-19T15:57:52.160Z,16.10
2023-02-19T16:00:21.239Z,16.10
2023-02-19T16:02:46.490Z,16.00
2023-02-19T16:05:27.245Z,16.00
2023-02-19T16:08:08.117Z,16.00
2023-02-19T16:10:32.764Z,15.90
2023-02-19T16:12:58.891Z,15.90
2023-02-19T16:15:24.818Z,15.90
2023-02-19T16:17:51.842Z,15.90
2023-02-19T16:20:24.336Z,15.90
2023-02-19T16:22:49.000Z,15.90
2023-02-19T16:25:25.918Z,15.80
2023-02-19T16:27:51.128Z,15.80
2023-02-19T16:30:28.432Z,15.80
2023-02-19T16:33:33.228Z,15.80
2023-02-19T16:36:02.711Z,15.80
2023-02-19T16:38:27.265Z,15.80
2023-02-19T16:41:12.714Z,15.70
2023-02-19T16:43:44.979Z,15.80
2023-02-19T16:46:14.796Z,15.70
2023-02-19T16:48:43.070Z,15.60
2023-02-19T16:51:14.625Z,15.50
2023-02-19T16:53:40.048Z,15.60
2023-02-19T16:56:04.992Z,15.50
2023-02-19T16:58:29.632Z,15.50
2023-02-19T17:00:54.101Z,15.50
2023-02-19T17:03:23.500Z,15.60
2023-02-19T17:05:48.615Z,15.60
2023-02-19T17:08:31.145Z,15.60
2023-02-19T17:10:56.279Z,15.60
2023-02-19T17:13:20.763Z,15.60
2023-02-19T17:15:45.592Z,15.60
2023-02-19T17:18:11.957Z,15.60
2023-02-19T17:20:37.707Z,15.60
2023-02-19T17:23:02.408Z,15.70
2023-02-19T17:25:29.425Z,15.60
2023-02-19T17:27:54.254Z,15.60
2023-02-19T17:30:22.042Z,15.60
2023-02-19T17:32:46.599Z,15.50
2023-02-19T17:35:11.187Z,15.40
2023-02-19T17:37:38.084Z,15.50
2023-02-19T17:40:03.344Z,15.30
2023-02-19T17:42:29.535Z,15.40
2023-02-19T17:44:54.210Z,15.30
2023-02-19T17:47:18.975Z,15.30
2023-02-19T17:49:44.901Z,15.20
2023-02-19T17:52:09.553Z,15.30
2023-02-19T17:54:34.450Z,15.20
2023-02-19T17:56:59.113Z,15.30
2023-02-19T17:59:25.708Z,15.20
2023-02-19T18:01:50.442Z,15.20
2023-02-19T18:04:15.161Z,15.10
2023-02-19T18:06:39.754Z,15.20
2023-02-19T18:09:04.662Z,15.20
2023-02-19T18:11:29.278Z,15.10
2023-02-19T18:13:53.976Z,15.10
2023-02-19T18:16:20.715Z,15.00
2023-02-19T18:18:46.495Z,14.90
2023-02-19T18:21:13.190Z,15.00
2023-02-19T18:23:40.518Z,14.90
2023-02-19T18:26:08.305Z,14.80
2023-02-19T18:28:33.048Z,14.80
2023-02-19T18:30:57.857Z,14.70
2023-02-19T18:33:24.778Z,14.70
2023-02-19T18:35:50.466Z,14.70
2023-02-19T18:38:15.089Z,14.70
2023-02-19T18:40:39.828Z,14.60
2023-02-19T18:43:05.888Z,14.60
2023-02-19T18:45:35.609Z,14.70
2023-02-19T18:48:01.737Z,14.50
2023-02-19T18:50:27.621Z,14.50
2023-02-19T18:52:53.823Z,14.50
2023-02-19T18:55:20.856Z,14.40
2023-02-19T18:57:45.809Z,14.50
2023-02-19T19:00:11.855Z,14.40
2023-02-19T19:02:48.657Z,14.50
2023-02-19T19:05:14.407Z,14.50
2023-02-19T19:07:44.319Z,14.50
2023-02-19T19:10:10.976Z,14.50
2023-02-19T19:12:35.836Z,14.40
2023-02-19T19:15:00.528Z,14.50
2023-02-19T19:17:25.112Z,14.50
2023-02-19T19:19:51.611Z,14.50
2023-02-19T19:22:16.796Z,14.50
2023-02-19T19:24:43.838Z,14.40
2023-02-19T19:27:08.493Z,14.50
2023-02-19T19:29:33.641Z,14.40
2023-02-19T19:31:58.830Z,14.40
2023-02-19T19:34:23.990Z,14.30
2023-02-19T19:36:50.108Z,14.30
2023-02-19T19:39:16.816Z,14.30
2023-02-19T19:41:43.300Z,14.30
2023-02-19T19:44:10.064Z,14.30
2023-02-19T19:46:34.864Z,14.20
2023-02-19T19:49:01.531Z,14.20
2023-02-19T19:51:31.555Z,14.20
2023-02-19T19:53:56.339Z,14.20
2023-02-19T19:56:21.136Z,14.20
2023-02-19T19:58:48.948Z,14.20
2023-02-19T20:01:15.461Z,14.20
2023-02-19T20:03:40.064Z,14.20
2023-02-19T20:06:05.701Z,14.20
2023-02-19T20:08:30.438Z,14.20
2023-02-19T20:10:54.917Z,14.10
2023-02-19T20:13:22.640Z,14.00
2023-02-19T20:15:49.725Z,13.90
2023-02-19T20:18:14.685Z,13.90
2023-02-19T20:20:39.597Z,13.90
2023-02-19T20:23:04.207Z,13.90
2023-02-19T20:25:29.409Z,13.90
2023-02-19T20:27:54.887Z,13.80
2023-02-19T20:30:21.145Z,13.70
2023-02-19T20:32:48.089Z,13.70
2023-02-19T20:35:12.837Z,13.70
2023-02-19T20:37:40.520Z,13.60
2023-02-19T20:40:06.482Z,13.60
2023-02-19T20:42:32.491Z,13.60
2023-02-19T20:44:57.825Z,13.40
2023-02-19T20:47:22.461Z,13.50
2023-02-19T20:49:49.292Z,13.40
2023-02-19T20:52:17.059Z,13.30
2023-02-19T20:54:44.884Z,13.20
2023-02-19T20:57:10.744Z,13.20
2023-02-19T20:59:36.353Z,13.10
2023-02-19T21:02:01.389Z,13.00
2023-02-19T21:04:26.191Z,13.00
2023-02-19T21:06:53.495Z,13.00
2023-02-19T21:09:20.556Z,12.80
2023-02-19T21:11:45.577Z,12.80
2023-02-19T21:14:11.403Z,12.70
2023-02-19T21:16:36.254Z,12.60
2023-02-19T21:19:01.513Z,12.50
2023-02-19T21:21:26.796Z,12.50
2023-02-19T21:23:53.058Z,12.50
2023-02-19T21:26:18.369Z,12.50
2023-02-19T21:28:42.976Z,12.40
2023-02-19T21:31:08.238Z,12.40
2023-02-19T21:33:33.113Z,12.40
2023-02-19T21:35:58.401Z,12.40
2023-02-19T21:38:23.259Z,12.40
2023-02-19T21:40:49.461Z,12.40
2023-02-19T21:43:15.231Z,12.30
2023-02-19T21:45:39.787Z,12.30
2023-02-19T21:48:04.309Z,12.30
2023-02-19T21:50:29.135Z,12.30
2023-02-19T21:52:54.185Z,12.30
2023-02-19T21:55:19.178Z,12.30
2023-02-19T21:57:45.944Z,12.30
2023-02-19T22:00:11.323Z,12.10
2023-02-19T22:02:36.200Z,12.10
2023-02-19T22:05:02.660Z,12.10
2023-02-19T22:07:30.628Z,12.20
2023-02-19T22:09:55.420Z,12.20
2023-02-19T22:12:20.641Z,12.10
2023-02-19T22:14:47.124Z,12.10
2023-02-19T22:17:13.079Z,12.10
2023-02-19T22:19:37.657Z,12.00
2023-02-19T22:22:02.206Z,12.10
2023-02-19T22:24:27.160Z,12.10
2023-02-19T22:26:56.296Z,12.10
2023-02-19T22:29:24.095Z,12.10
2023-02-19T22:31:50.983Z,12.10
2023-02-19T22:34:16.527Z,12.00
2023-02-19T22:36:41.540Z,12.00
2023-02-19T22:39:07.700Z,11.90
2023-02-19T22:41:32.752Z,11.90
2023-02-19T22:43:58.079Z,11.90
2023-02-19T22:46:25.357Z,11.80
2023-02-19T22:48:51.815Z,11.80
2023-02-19T22:51:18.081Z,11.70
2023-02-19T22:53:46.465Z,11.70
2023-02-19T22:56:11.564Z,11.50
2023-02-19T22:58:36.620Z,11.50
2023-02-19T23:01:02.180Z,11.50
2023-02-19T23:03:28.877Z,11.60
2023-02-19T23:05:56.068Z,11.50
2023-02-19T23:08:20.969Z,11.60
2023-02-19T23:10:45.871Z,11.50
2023-02-19T23:13:11.082Z,11.50
2023-02-19T23:15:38.533Z,11.50
2023-02-19T23:18:04.775Z,11.50
2023-02-19T23:20:29.411Z,11.50
2023-02-19T23:22:55.885Z,11.40
2023-02-19T23:25:21.576Z,11.40
2023-02-19T23:27:46.298Z,11.40
2023-02-19T23:30:11.857Z,11.30
2023-02-19T23:32:36.708Z,11.20
2023-02-19T23:35:01.189Z,11.20
2023-02-19T23:37:26.554Z,11.20
2023-02-19T23:39:52.671Z,11.20
2023-02-19T23:42:19.203Z,11.20
2023-02-19T23:44:47.379Z,11.20
2023-02-19T23:47:12.344Z,11.20
2023-02-19T23:49:37.013Z,11.10
2023-02-19T23:52:02.965Z,11.20
2023-02-19T23:54:28.193Z,11.20
2023-02-19T23:56:54.903Z,11.20
2023-02-19T23:59:21.942Z,11.20
